sensor_id;sensor_type;location;lat;lon;timestamp;pressure;altitude;pressure_sealevel;temperature;humidity
69402;BME280;56589;51.992;5.924;2022-12-07T00:00:49;101189.84;;;3.77;84.56
69402;BME280;56589;51.992;5.924;2022-12-07T00:03:14;101191.56;;;3.77;84.72
69402;BME280;56589;51.992;5.924;2022-12-07T00:05:40;101182.19;;;3.73;84.32
69402;BME280;56589;51.992;5.924;2022-12-07T00:08:06;101188.38;;;3.69;83.87
69402;BME280;56589;51.992;5.924;2022-12-07T00:10:37;101184.25;;;3.62;84.08
69402;BME280;56589;51.992;5.924;2022-12-07T00:13:03;101188.72;;;3.56;83.91
69402;BME280;56589;51.992;5.924;2022-12-07T00:15:29;101183.66;;;3.52;83.74
69402;BME280;56589;51.992;5.924;2022-12-07T00:17:54;101183.78;;;3.47;84.22
69402;BME280;56589;51.992;5.924;2022-12-07T00:20:20;101180.47;;;3.42;84.22
69402;BME280;56589;51.992;5.924;2022-12-07T00:22:46;101186.63;;;3.38;84.35
69402;BME280;56589;51.992;5.924;2022-12-07T00:25:12;101176.38;;;3.34;84.40
69402;BME280;56589;51.992;5.924;2022-12-07T00:27:41;101182.53;;;3.31;84.02
69402;BME280;56589;51.992;5.924;2022-12-07T00:30:07;101184.38;;;3.26;84.14
69402;BME280;56589;51.992;5.924;2022-12-07T00:32:34;101180.09;;;3.23;84.21
69402;BME280;56589;51.992;5.924;2022-12-07T00:35:00;101174.13;;;3.21;84.33
69402;BME280;56589;51.992;5.924;2022-12-07T00:37:26;101172.44;;;3.20;84.65
69402;BME280;56589;51.992;5.924;2022-12-07T00:39:51;101162.13;;;3.17;84.58
69402;BME280;56589;51.992;5.924;2022-12-07T00:42:17;101169.06;;;3.17;84.65
69402;BME280;56589;51.992;5.924;2022-12-07T00:44:46;101171.69;;;3.15;84.31
69402;BME280;56589;51.992;5.924;2022-12-07T00:47:11;101168.25;;;3.15;84.26
69402;BME280;56589;51.992;5.924;2022-12-07T00:49:37;101161.41;;;3.12;84.59
69402;BME280;56589;51.992;5.924;2022-12-07T00:52:03;101159.69;;;3.11;84.45
69402;BME280;56589;51.992;5.924;2022-12-07T00:54:29;101153.69;;;3.09;83.98
69402;BME280;56589;51.992;5.924;2022-12-07T00:56:55;101158.94;;;3.08;84.03
69402;BME280;56589;51.992;5.924;2022-12-07T00:59:21;101159.84;;;3.07;84.31
69402;BME280;56589;51.992;5.924;2022-12-07T01:01:49;101155.63;;;3.02;84.02
69402;BME280;56589;51.992;5.924;2022-12-07T01:04:17;101153.13;;;2.99;84.40
69402;BME280;56589;51.992;5.924;2022-12-07T01:06:43;101148.84;;;2.97;84.13
69402;BME280;56589;51.992;5.924;2022-12-07T01:09:09;101146.31;;;2.95;84.21
69402;BME280;56589;51.992;5.924;2022-12-07T01:11:35;101151.56;;;2.92;84.83
69402;BME280;56589;51.992;5.924;2022-12-07T01:14:01;101151.59;;;2.91;84.55
69402;BME280;56589;51.992;5.924;2022-12-07T01:16:28;101154.19;;;2.91;84.56
69402;BME280;56589;51.992;5.924;2022-12-07T01:18:59;101155.13;;;2.88;84.57
69402;BME280;56589;51.992;5.924;2022-12-07T01:21:27;101162.97;;;2.87;84.62
69402;BME280;56589;51.992;5.924;2022-12-07T01:23:57;101154.34;;;2.85;84.34
69402;BME280;56589;51.992;5.924;2022-12-07T01:26:24;101158.75;;;2.83;84.71
69402;BME280;56589;51.992;5.924;2022-12-07T01:28:51;101163.13;;;2.81;84.39
69402;BME280;56589;51.992;5.924;2022-12-07T01:31:19;101173.50;;;2.79;84.50
69402;BME280;56589;51.992;5.924;2022-12-07T01:33:49;101162.28;;;2.78;84.80
69402;BME280;56589;51.992;5.924;2022-12-07T01:36:20;101167.53;;;2.77;84.85
69402;BME280;56589;51.992;5.924;2022-12-07T01:38:49;101163.25;;;2.76;85.03
69402;BME280;56589;51.992;5.924;2022-12-07T01:41:17;101164.94;;;2.77;84.62
69402;BME280;56589;51.992;5.924;2022-12-07T01:46:47;101153.72;;;2.76;84.86
69402;BME280;56589;51.992;5.924;2022-12-07T01:49:18;101151.13;;;2.76;85.03
69402;BME280;56589;51.992;5.924;2022-12-07T01:51:57;101153.75;;;2.75;84.79
69402;BME280;56589;51.992;5.924;2022-12-07T01:54:32;101147.75;;;2.73;84.86
69402;BME280;56589;51.992;5.924;2022-12-07T01:57:01;101154.72;;;2.71;85.08
69402;BME280;56589;51.992;5.924;2022-12-07T01:59:28;101152.19;;;2.69;84.76
69402;BME280;56589;51.992;5.924;2022-12-07T02:01:55;101159.13;;;2.67;84.66
69402;BME280;56589;51.992;5.924;2022-12-07T02:04:22;101147.91;;;2.67;84.70
69402;BME280;56589;51.992;5.924;2022-12-07T02:06:48;101147.94;;;2.65;84.84
69402;BME280;56589;51.992;5.924;2022-12-07T02:09:20;101142.84;;;2.62;84.54
69402;BME280;56589;51.992;5.924;2022-12-07T02:11:46;101145.44;;;2.62;84.71
69402;BME280;56589;51.992;5.924;2022-12-07T02:14:12;101144.63;;;2.60;84.40
69402;BME280;56589;51.992;5.924;2022-12-07T02:16:44;101145.50;;;2.59;84.54
69402;BME280;56589;51.992;5.924;2022-12-07T02:19:56;101143.81;;;2.58;84.49
69402;BME280;56589;51.992;5.924;2022-12-07T02:22:51;101147.38;;;2.54;85.00
69402;BME280;56589;51.992;5.924;2022-12-07T02:25:55;101146.59;;;2.50;85.06
69402;BME280;56589;51.992;5.924;2022-12-07T02:28:35;101146.63;;;2.49;84.63
69402;BME280;56589;51.992;5.924;2022-12-07T02:31:10;101156.13;;;2.48;84.44
69402;BME280;56589;51.992;5.924;2022-12-07T02:33:45;101149.31;;;2.46;84.58
69402;BME280;56589;51.992;5.924;2022-12-07T02:36:22;101151.09;;;2.44;84.44
69402;BME280;56589;51.992;5.924;2022-12-07T02:38:58;101157.13;;;2.43;84.26
69402;BME280;56589;51.992;5.924;2022-12-07T02:41:33;101155.44;;;2.42;84.41
69402;BME280;56589;51.992;5.924;2022-12-07T02:44:06;101151.16;;;2.41;84.65
69402;BME280;56589;51.992;5.924;2022-12-07T02:46:41;101150.34;;;2.39;84.66
69402;BME280;56589;51.992;5.924;2022-12-07T02:49:10;101153.78;;;2.39;84.36
69402;BME280;56589;51.992;5.924;2022-12-07T02:51:40;101150.38;;;2.37;84.37
69402;BME280;56589;51.992;5.924;2022-12-07T02:54:12;101149.56;;;2.35;84.51
69402;BME280;56589;51.992;5.924;2022-12-07T02:56:46;101146.16;;;2.33;84.31
69402;BME280;56589;51.992;5.924;2022-12-07T02:59:25;101145.31;;;2.33;84.63
69402;BME280;56589;51.992;5.924;2022-12-07T03:02:11;101150.50;;;2.33;84.26
69402;BME280;56589;51.992;5.924;2022-12-07T03:04:52;101138.44;;;2.30;84.80
69402;BME280;56589;51.992;5.924;2022-12-07T03:07:39;101147.91;;;2.31;84.86
69402;BME280;56589;51.992;5.924;2022-12-07T03:10:22;101155.53;;;2.37;84.88
69402;BME280;56589;51.992;5.924;2022-12-07T03:13:00;101152.00;;;2.41;85.25
69402;BME280;56589;51.992;5.924;2022-12-07T03:15:34;101144.13;;;2.46;84.90
69402;BME280;56589;51.992;5.924;2022-12-07T03:18:09;101153.53;;;2.50;84.77
69402;BME280;56589;51.992;5.924;2022-12-07T03:20:39;101159.44;;;2.55;85.28
69402;BME280;56589;51.992;5.924;2022-12-07T03:23:10;101147.31;;;2.57;85.00
69402;BME280;56589;51.992;5.924;2022-12-07T03:25:39;101145.50;;;2.59;85.15
69402;BME280;56589;51.992;5.924;2022-12-07T03:28:12;101147.16;;;2.63;85.12
69402;BME280;56589;51.992;5.924;2022-12-07T03:30:47;101140.09;;;2.68;85.06
69402;BME280;56589;51.992;5.924;2022-12-07T03:33:22;101142.66;;;2.70;84.72
69402;BME280;56589;51.992;5.924;2022-12-07T03:35:59;101135.69;;;2.72;84.91
69402;BME280;56589;51.992;5.924;2022-12-07T03:38:35;101139.94;;;2.74;84.47
69402;BME280;56589;51.992;5.924;2022-12-07T03:41:08;101138.16;;;2.76;84.76
69402;BME280;56589;51.992;5.924;2022-12-07T03:43:39;101121.72;;;2.77;84.77
69402;BME280;56589;51.992;5.924;2022-12-07T03:46:15;101122.50;;;2.80;84.55
69402;BME280;56589;51.992;5.924;2022-12-07T03:48:55;101127.63;;;2.83;84.54
69402;BME280;56589;51.992;5.924;2022-12-07T03:51:30;101131.88;;;2.85;84.85
69402;BME280;56589;51.992;5.924;2022-12-07T03:54:09;101128.31;;;2.89;84.88
69402;BME280;56589;51.992;5.924;2022-12-07T03:56:39;101133.50;;;2.89;84.79
69402;BME280;56589;51.992;5.924;2022-12-07T03:59:08;101130.84;;;2.91;84.54
69402;BME280;56589;51.992;5.924;2022-12-07T04:01:36;101128.25;;;2.91;84.62
69402;BME280;56589;51.992;5.924;2022-12-07T04:04:04;101125.63;;;2.92;84.38
69402;BME280;56589;51.992;5.924;2022-12-07T04:06:30;101120.44;;;2.92;84.57
69402;BME280;56589;51.992;5.924;2022-12-07T04:08:56;101128.22;;;2.92;84.70
69402;BME280;56589;51.992;5.924;2022-12-07T04:11:21;101124.78;;;2.92;84.52
69402;BME280;56589;51.992;5.924;2022-12-07T04:13:48;101124.03;;;2.88;84.23
69402;BME280;56589;51.992;5.924;2022-12-07T04:16:14;101117.16;;;2.86;84.45
69402;BME280;56589;51.992;5.924;2022-12-07T04:18:40;101118.06;;;2.85;84.12
69402;BME280;56589;51.992;5.924;2022-12-07T04:21:08;101123.28;;;2.83;84.26
69402;BME280;56589;51.992;5.924;2022-12-07T04:23:34;101125.94;;;2.82;84.21
69402;BME280;56589;51.992;5.924;2022-12-07T04:26:00;101117.31;;;2.81;84.05
69402;BME280;56589;51.992;5.924;2022-12-07T04:28:25;101119.97;;;2.78;83.98
69402;BME280;56589;51.992;5.924;2022-12-07T04:30:51;101126.94;;;2.76;84.03
69402;BME280;56589;51.992;5.924;2022-12-07T04:33:17;101126.88;;;2.77;84.25
69402;BME280;56589;51.992;5.924;2022-12-07T04:35:43;101127.69;;;2.80;84.00
69402;BME280;56589;51.992;5.924;2022-12-07T04:38:11;101129.41;;;2.81;84.32
69402;BME280;56589;51.992;5.924;2022-12-07T04:40:37;101119.84;;;2.83;84.26
69402;BME280;56589;51.992;5.924;2022-12-07T04:43:03;101123.25;;;2.85;84.10
69402;BME280;56589;51.992;5.924;2022-12-07T04:45:28;101123.19;;;2.86;84.25
69402;BME280;56589;51.992;5.924;2022-12-07T04:47:54;101119.69;;;2.89;84.73
69402;BME280;56589;51.992;5.924;2022-12-07T04:50:20;101109.19;;;2.93;84.64
69402;BME280;56589;51.992;5.924;2022-12-07T04:52:46;101116.88;;;2.96;84.91
69402;BME280;56589;51.992;5.924;2022-12-07T04:55:15;101118.53;;;2.99;84.64
69402;BME280;56589;51.992;5.924;2022-12-07T04:57:41;101114.16;;;3.01;84.81
69402;BME280;56589;51.992;5.924;2022-12-07T05:00:09;101110.66;;;3.02;84.68
69402;BME280;56589;51.992;5.924;2022-12-07T05:02:35;101114.16;;;3.01;84.30
69402;BME280;56589;51.992;5.924;2022-12-07T05:05:02;101106.44;;;2.98;84.12
69402;BME280;56589;51.992;5.924;2022-12-07T05:07:28;101101.41;;;2.93;83.89
69402;BME280;56589;51.992;5.924;2022-12-07T05:09:54;101104.13;;;2.89;83.81
69402;BME280;56589;51.992;5.924;2022-12-07T05:12:22;101097.34;;;2.83;83.74
69402;BME280;56589;51.992;5.924;2022-12-07T05:14:48;101106.94;;;2.80;84.04
69402;BME280;56589;51.992;5.924;2022-12-07T05:17:14;101096.75;;;2.73;83.91
69402;BME280;56589;51.992;5.924;2022-12-07T05:19:39;101103.75;;;2.70;84.14
69402;BME280;56589;51.992;5.924;2022-12-07T05:22:05;101105.63;;;2.65;84.05
69402;BME280;56589;51.992;5.924;2022-12-07T05:24:31;101105.66;;;2.63;83.94
69402;BME280;56589;51.992;5.924;2022-12-07T05:26:57;101101.41;;;2.61;83.85
69402;BME280;56589;51.992;5.924;2022-12-07T05:29:25;101107.53;;;2.58;83.59
69402;BME280;56589;51.992;5.924;2022-12-07T05:31:51;101103.31;;;2.54;83.71
69402;BME280;56589;51.992;5.924;2022-12-07T05:34:17;101108.47;;;2.54;83.97
69402;BME280;56589;51.992;5.924;2022-12-07T05:36:43;101108.53;;;2.53;83.60
69402;BME280;56589;51.992;5.924;2022-12-07T05:39:10;101114.66;;;2.50;83.99
69402;BME280;56589;51.992;5.924;2022-12-07T05:41:36;101111.22;;;2.48;84.22
69402;BME280;56589;51.992;5.924;2022-12-07T05:44:02;101102.56;;;2.49;84.01
69402;BME280;56589;51.992;5.924;2022-12-07T05:46:30;101106.00;;;2.51;84.16
69402;BME280;56589;51.992;5.924;2022-12-07T05:48:56;101098.16;;;2.53;84.30
69402;BME280;56589;51.992;5.924;2022-12-07T05:51:22;101105.00;;;2.55;84.30
69402;BME280;56589;51.992;5.924;2022-12-07T05:53:48;101099.81;;;2.55;84.44
69402;BME280;56589;51.992;5.924;2022-12-07T05:56:14;101103.31;;;2.54;84.16
69402;BME280;56589;51.992;5.924;2022-12-07T05:58:40;101106.78;;;2.53;84.13
69402;BME280;56589;51.992;5.924;2022-12-07T06:01:06;101099.09;;;2.50;83.88
69402;BME280;56589;51.992;5.924;2022-12-07T06:03:34;101103.50;;;2.46;83.99
69402;BME280;56589;51.992;5.924;2022-12-07T06:06:00;101094.09;;;2.44;84.06
69402;BME280;56589;51.992;5.924;2022-12-07T06:08:26;101096.72;;;2.41;84.32
69402;BME280;56589;51.992;5.924;2022-12-07T06:10:52;101107.19;;;2.38;84.11
69402;BME280;56589;51.992;5.924;2022-12-07T06:13:17;101100.28;;;2.37;84.23
69402;BME280;56589;51.992;5.924;2022-12-07T06:15:43;101097.81;;;2.32;83.93
69402;BME280;56589;51.992;5.924;2022-12-07T06:18:09;101088.38;;;2.30;84.25
69402;BME280;56589;51.992;5.924;2022-12-07T06:20:37;101097.94;;;2.28;84.17
69402;BME280;56589;51.992;5.924;2022-12-07T06:23:03;101097.16;;;2.24;84.06
69402;BME280;56589;51.992;5.924;2022-12-07T06:25:29;101109.28;;;2.22;84.10
69402;BME280;56589;51.992;5.924;2022-12-07T06:27:55;101105.06;;;2.19;84.30
69402;BME280;56589;51.992;5.924;2022-12-07T06:30:21;101104.22;;;2.17;84.11
69402;BME280;56589;51.992;5.924;2022-12-07T06:32:46;101107.69;;;2.16;84.36
69402;BME280;56589;51.992;5.924;2022-12-07T06:35:12;101109.50;;;2.13;84.13
69402;BME280;56589;51.992;5.924;2022-12-07T06:37:41;101102.66;;;2.10;84.33
69402;BME280;56589;51.992;5.924;2022-12-07T06:40:08;101105.34;;;2.07;83.84
69402;BME280;56589;51.992;5.924;2022-12-07T06:42:35;101106.25;;;2.05;84.43
69402;BME280;56589;51.992;5.924;2022-12-07T06:45:00;101108.84;;;2.05;84.20
69402;BME280;56589;51.992;5.924;2022-12-07T06:47:26;101106.28;;;2.03;84.38
69402;BME280;56589;51.992;5.924;2022-12-07T06:49:52;101108.88;;;2.03;84.19
69402;BME280;56589;51.992;5.924;2022-12-07T06:52:18;101110.66;;;2.01;84.44
69402;BME280;56589;51.992;5.924;2022-12-07T06:54:46;101118.41;;;2.03;84.44
69402;BME280;56589;51.992;5.924;2022-12-07T06:57:12;101113.25;;;2.01;84.05
69402;BME280;56589;51.992;5.924;2022-12-07T06:59:38;101111.53;;;2.02;84.11
69402;BME280;56589;51.992;5.924;2022-12-07T07:02:04;101111.47;;;2.03;84.54
69402;BME280;56589;51.992;5.924;2022-12-07T07:04:30;101107.19;;;2.02;84.15
69402;BME280;56589;51.992;5.924;2022-12-07T07:06:56;101106.34;;;2.02;84.40
69402;BME280;56589;51.992;5.924;2022-12-07T07:09:22;101107.19;;;2.02;84.45
69402;BME280;56589;51.992;5.924;2022-12-07T07:11:50;101114.06;;;2.03;84.64
69402;BME280;56589;51.992;5.924;2022-12-07T07:14:16;101109.72;;;2.04;84.49
69402;BME280;56589;51.992;5.924;2022-12-07T07:16:42;101117.47;;;2.05;84.61
69402;BME280;56589;51.992;5.924;2022-12-07T07:19:07;101114.03;;;2.05;84.47
69402;BME280;56589;51.992;5.924;2022-12-07T07:21:33;101110.59;;;2.04;84.27
69402;BME280;56589;51.992;5.924;2022-12-07T07:23:59;101114.06;;;2.03;84.38
69402;BME280;56589;51.992;5.924;2022-12-07T07:26:25;101111.47;;;2.03;84.31
69402;BME280;56589;51.992;5.924;2022-12-07T07:28:53;101113.19;;;2.04;84.03
69402;BME280;56589;51.992;5.924;2022-12-07T07:31:19;101118.34;;;2.04;84.31
69402;BME280;56589;51.992;5.924;2022-12-07T07:33:45;101114.97;;;2.02;84.41
69402;BME280;56589;51.992;5.924;2022-12-07T07:36:11;101117.56;;;2.02;84.28
69402;BME280;56589;51.992;5.924;2022-12-07T07:38:37;101103.75;;;2.02;84.39
69402;BME280;56589;51.992;5.924;2022-12-07T07:41:03;101128.75;;;2.03;84.14
69402;BME280;56589;51.992;5.924;2022-12-07T07:43:29;101119.25;;;2.03;84.61
69402;BME280;56589;51.992;5.924;2022-12-07T07:45:58;101120.13;;;2.02;84.18
69402;BME280;56589;51.992;5.924;2022-12-07T07:48:24;101120.13;;;2.02;84.59
69402;BME280;56589;51.992;5.924;2022-12-07T07:50:50;101118.41;;;2.03;84.34
69402;BME280;56589;51.992;5.924;2022-12-07T07:53:17;101120.94;;;2.04;84.31
69402;BME280;56589;51.992;5.924;2022-12-07T07:55:50;101120.94;;;2.04;84.58
69402;BME280;56589;51.992;5.924;2022-12-07T07:58:16;101117.41;;;2.07;84.39
69402;BME280;56589;51.992;5.924;2022-12-07T08:00:42;101117.41;;;2.08;84.48
69402;BME280;56589;51.992;5.924;2022-12-07T08:03:10;101115.66;;;2.09;84.00
69402;BME280;56589;51.992;5.924;2022-12-07T08:05:36;101118.25;;;2.09;84.11
69402;BME280;56589;51.992;5.924;2022-12-07T08:08:03;101126.88;;;2.09;84.21
69402;BME280;56589;51.992;5.924;2022-12-07T08:10:29;101114.78;;;2.10;84.41
69402;BME280;56589;51.992;5.924;2022-12-07T08:12:58;101126.78;;;2.12;84.31
69402;BME280;56589;51.992;5.924;2022-12-07T08:15:25;101124.13;;;2.15;84.65
69402;BME280;56589;51.992;5.924;2022-12-07T08:17:52;101130.03;;;2.22;84.63
69402;BME280;56589;51.992;5.924;2022-12-07T08:20:22;101135.84;;;2.32;84.45
69402;BME280;56589;51.992;5.924;2022-12-07T08:22:48;101138.19;;;2.41;84.67
69402;BME280;56589;51.992;5.924;2022-12-07T08:25:14;101143.13;;;2.52;84.79
69402;BME280;56589;51.992;5.924;2022-12-07T08:27:40;101152.34;;;2.62;84.96
69402;BME280;56589;51.992;5.924;2022-12-07T08:30:07;101146.94;;;2.71;84.75
69402;BME280;56589;51.992;5.924;2022-12-07T08:32:33;101154.47;;;2.80;84.49
69402;BME280;56589;51.992;5.924;2022-12-07T08:34:59;101150.84;;;2.87;84.54
69402;BME280;56589;51.992;5.924;2022-12-07T08:37:28;101155.00;;;2.93;84.52
69402;BME280;56589;51.992;5.924;2022-12-07T08:39:53;101155.78;;;2.96;84.19
69402;BME280;56589;51.992;5.924;2022-12-07T08:42:19;101145.28;;;3.01;84.44
69402;BME280;56589;51.992;5.924;2022-12-07T08:44:45;101130.53;;;3.03;84.38
69402;BME280;56589;51.992;5.924;2022-12-07T08:47:11;101144.28;;;3.07;84.53
69402;BME280;56589;51.992;5.924;2022-12-07T08:49:40;101146.75;;;3.10;84.20
69402;BME280;56589;51.992;5.924;2022-12-07T08:52:09;101137.25;;;3.10;84.53
69402;BME280;56589;51.992;5.924;2022-12-07T08:54:38;101138.09;;;3.11;83.92
69402;BME280;56589;51.992;5.924;2022-12-07T08:57:06;101136.44;;;3.08;84.26
69402;BME280;56589;51.992;5.924;2022-12-07T08:59:35;101135.63;;;3.06;84.09
69402;BME280;56589;51.992;5.924;2022-12-07T09:02:02;101143.44;;;3.04;83.84
69402;BME280;56589;51.992;5.924;2022-12-07T09:04:28;101148.69;;;3.03;83.96
69402;BME280;56589;51.992;5.924;2022-12-07T09:06:54;101149.56;;;3.02;83.85
69402;BME280;56589;51.992;5.924;2022-12-07T09:09:21;101146.03;;;3.06;84.13
69402;BME280;56589;51.992;5.924;2022-12-07T09:11:49;101144.09;;;3.13;83.92
69402;BME280;56589;51.992;5.924;2022-12-07T09:14:15;101137.06;;;3.18;84.15
69402;BME280;56589;51.992;5.924;2022-12-07T09:16:41;101138.69;;;3.20;83.89
69402;BME280;56589;51.992;5.924;2022-12-07T09:19:08;101142.09;;;3.22;83.71
69402;BME280;56589;51.992;5.924;2022-12-07T09:21:33;101141.13;;;3.26;83.89
69402;BME280;56589;51.992;5.924;2022-12-07T09:23:59;101147.94;;;3.29;83.88
69402;BME280;56589;51.992;5.924;2022-12-07T09:26:25;101145.25;;;3.34;83.92
69402;BME280;56589;51.992;5.924;2022-12-07T09:28:54;101153.66;;;3.42;84.20
69402;BME280;56589;51.992;5.924;2022-12-07T09:31:19;101146.50;;;3.50;84.37
69402;BME280;56589;51.992;5.924;2022-12-07T09:33:45;101149.66;;;3.59;84.25
69402;BME280;56589;51.992;5.924;2022-12-07T09:36:11;101147.66;;;3.69;84.08
69402;BME280;56589;51.992;5.924;2022-12-07T09:38:37;101148.28;;;3.77;84.16
69402;BME280;56589;51.992;5.924;2022-12-07T09:41:06;101149.75;;;3.86;83.98
69402;BME280;56589;51.992;5.924;2022-12-07T09:43:35;101140.97;;;3.90;83.83
69402;BME280;56589;51.992;5.924;2022-12-07T09:46:12;101147.69;;;3.97;83.66
69402;BME280;56589;51.992;5.924;2022-12-07T09:48:42;101147.59;;;4.00;83.57
69402;BME280;56589;51.992;5.924;2022-12-07T09:51:14;101146.59;;;4.04;83.58
69402;BME280;56589;51.992;5.924;2022-12-07T09:53:44;101137.00;;;4.06;83.49
69402;BME280;56589;51.992;5.924;2022-12-07T09:56:13;101129.06;;;4.11;83.38
69402;BME280;56589;51.992;5.924;2022-12-07T09:58:41;101132.41;;;4.15;83.09
69402;BME280;56589;51.992;5.924;2022-12-07T10:01:14;101130.66;;;4.15;82.81
69402;BME280;56589;51.992;5.924;2022-12-07T10:03:45;101128.06;;;4.15;83.02
69402;BME280;56589;51.992;5.924;2022-12-07T10:06:17;101125.44;;;4.15;83.01
69402;BME280;56589;51.992;5.924;2022-12-07T10:08:44;101125.44;;;4.17;82.92
69402;BME280;56589;51.992;5.924;2022-12-07T10:11:10;101120.13;;;4.20;82.66
69402;BME280;56589;51.992;5.924;2022-12-07T10:13:38;101124.31;;;4.24;83.29
69402;BME280;56589;51.992;5.924;2022-12-07T10:16:06;101124.19;;;4.28;83.24
69402;BME280;56589;51.992;5.924;2022-12-07T10:18:55;101120.56;;;4.32;82.94
69402;BME280;56589;51.992;5.924;2022-12-07T10:21:22;101112.78;;;4.32;82.88
69402;BME280;56589;51.992;5.924;2022-12-07T10:24:00;101116.13;;;4.36;83.31
69402;BME280;56589;51.992;5.924;2022-12-07T10:26:31;101121.28;;;4.37;82.96
69402;BME280;56589;51.992;5.924;2022-12-07T10:29:00;101114.38;;;4.36;82.89
69402;BME280;56589;51.992;5.924;2022-12-07T10:31:29;101110.88;;;4.37;83.14
69402;BME280;56589;51.992;5.924;2022-12-07T10:33:59;101101.19;;;4.43;82.81
69402;BME280;56589;51.992;5.924;2022-12-07T10:36:30;101097.59;;;4.47;82.63
69402;BME280;56589;51.992;5.924;2022-12-07T10:39:03;101093.91;;;4.52;82.44
69402;BME280;56589;51.992;5.924;2022-12-07T10:41:52;101101.47;;;4.60;81.79
69402;BME280;56589;51.992;5.924;2022-12-07T10:44:22;101094.44;;;4.62;81.81
69402;BME280;56589;51.992;5.924;2022-12-07T10:47:01;101094.34;;;4.65;81.37
69402;BME280;56589;51.992;5.924;2022-12-07T10:53:27;101095.72;;;4.75;81.84
69402;BME280;56589;51.992;5.924;2022-12-07T10:56:20;101092.84;;;4.83;81.49
69402;BME280;56589;51.992;5.924;2022-12-07T10:59:18;101088.19;;;4.92;81.59
69402;BME280;56589;51.992;5.924;2022-12-07T11:02:20;101086.16;;;5.01;81.38
69402;BME280;56589;51.992;5.924;2022-12-07T11:05:03;101087.75;;;5.05;81.28
69402;BME280;56589;51.992;5.924;2022-12-07T11:07:47;101083.34;;;5.07;80.89
69402;BME280;56589;51.992;5.924;2022-12-07T11:10:24;101073.91;;;5.04;80.89
69402;BME280;56589;51.992;5.924;2022-12-07T11:13:04;101069.75;;;4.99;80.64
69402;BME280;56589;51.992;5.924;2022-12-07T11:15:55;101070.06;;;4.91;80.31
69402;BME280;56589;51.992;5.924;2022-12-07T11:18:52;101072.69;;;4.89;80.28
69402;BME280;56589;51.992;5.924;2022-12-07T11:21:43;101066.53;;;4.92;80.19
69402;BME280;56589;51.992;5.924;2022-12-07T11:24:18;101063.78;;;4.97;80.64
69402;BME280;56589;51.992;5.924;2022-12-07T11:27:01;101055.78;;;5.01;80.58
69402;BME280;56589;51.992;5.924;2022-12-07T11:29:46;101055.56;;;5.07;80.32
69402;BME280;56589;51.992;5.924;2022-12-07T11:32:24;101052.69;;;5.15;80.48
69402;BME280;56589;51.992;5.924;2022-12-07T11:35:18;101055.91;;;5.22;80.50
69402;BME280;56589;51.992;5.924;2022-12-07T11:37:57;101052.22;;;5.27;80.45
69402;BME280;56589;51.992;5.924;2022-12-07T11:40:31;101049.34;;;5.35;80.24
69402;BME280;56589;51.992;5.924;2022-12-07T11:43:04;101048.13;;;5.43;80.58
69402;BME280;56589;51.992;5.924;2022-12-07T11:45:42;101041.78;;;5.51;79.61
69402;BME280;56589;51.992;5.924;2022-12-07T11:48:16;101038.06;;;5.56;79.66
69402;BME280;56589;51.992;5.924;2022-12-07T11:50:51;101046.50;;;5.63;79.38
69402;BME280;56589;51.992;5.924;2022-12-07T11:53:22;101041.91;;;5.69;79.75
69402;BME280;56589;51.992;5.924;2022-12-07T11:56:01;101037.25;;;5.78;79.55
69402;BME280;56589;51.992;5.924;2022-12-07T11:58:42;101037.94;;;5.81;78.67
69402;BME280;56589;51.992;5.924;2022-12-07T12:01:35;101037.94;;;5.81;78.60
69402;BME280;56589;51.992;5.924;2022-12-07T12:04:23;101026.03;;;5.76;78.48
69402;BME280;56589;51.992;5.924;2022-12-07T12:06:55;101024.53;;;5.70;78.38
69402;BME280;56589;51.992;5.924;2022-12-07T12:09:25;101021.34;;;5.62;78.18
69402;BME280;56589;51.992;5.924;2022-12-07T12:12:20;101021.72;;;5.53;77.99
69402;BME280;56589;51.992;5.924;2022-12-07T12:15:09;101015.06;;;5.45;78.54
69402;BME280;56589;51.992;5.924;2022-12-07T12:18:02;101011.03;;;5.38;78.26
69402;BME280;56589;51.992;5.924;2022-12-07T12:20:51;101010.34;;;5.33;78.23
69402;BME280;56589;51.992;5.924;2022-12-07T12:23:22;101016.16;;;5.40;78.75
69402;BME280;56589;51.992;5.924;2022-12-07T12:25:55;101016.59;;;5.51;78.95
69402;BME280;56589;51.992;5.924;2022-12-07T12:28:31;101004.53;;;5.70;78.64
69402;BME280;56589;51.992;5.924;2022-12-07T12:31:09;101002.59;;;5.76;77.91
69402;BME280;56589;51.992;5.924;2022-12-07T12:33:43;101006.09;;;5.74;78.31
69402;BME280;56589;51.992;5.924;2022-12-07T12:36:23;101001.59;;;5.78;78.57
69402;BME280;56589;51.992;5.924;2022-12-07T12:39:09;101007.91;;;5.94;78.65
69402;BME280;56589;51.992;5.924;2022-12-07T12:41:53;101004.56;;;6.11;78.02
69402;BME280;56589;51.992;5.924;2022-12-07T12:44:41;100998.78;;;6.25;77.74
69402;BME280;56589;51.992;5.924;2022-12-07T12:47:41;100992.06;;;6.40;78.32
69402;BME280;56589;51.992;5.924;2022-12-07T12:50:19;100994.22;;;6.50;77.47
69402;BME280;56589;51.992;5.924;2022-12-07T12:56:00;100989.38;;;6.62;77.67
69402;BME280;56589;51.992;5.924;2022-12-07T13:02:21;100978.13;;;6.60;76.49
69402;BME280;56589;51.992;5.924;2022-12-07T13:04:55;100975.53;;;6.60;77.03
69402;BME280;56589;51.992;5.924;2022-12-07T13:10:41;100965.94;;;6.60;76.42
69402;BME280;56589;51.992;5.924;2022-12-07T13:13:35;100964.25;;;6.59;76.20
69402;BME280;56589;51.992;5.924;2022-12-07T13:22:52;100966.78;;;6.61;76.24
69402;BME280;56589;51.992;5.924;2022-12-07T13:25:33;100962.47;;;6.60;76.53
69402;BME280;56589;51.992;5.924;2022-12-07T13:28:13;100952.78;;;6.63;76.12
69402;BME280;56589;51.992;5.924;2022-12-07T13:30:50;100951.56;;;6.70;76.33
69402;BME280;56589;51.992;5.924;2022-12-07T13:33:27;100950.56;;;6.73;76.05
69402;BME280;56589;51.992;5.924;2022-12-07T13:35:56;100949.69;;;6.74;76.83
69402;BME280;56589;51.992;5.924;2022-12-07T13:38:25;100941.84;;;6.74;76.62
69402;BME280;56589;51.992;5.924;2022-12-07T13:41:10;100930.69;;;6.70;76.42
69402;BME280;56589;51.992;5.924;2022-12-07T13:43:48;100931.81;;;6.65;76.40